Time;durP1;ratioP1;P1;durP2;ratioP2;P2;SDS_P1;SDS_P2;PMS_P1;PMS_P2;Temp;Humidity;BMP_temperature;BMP_pressure;BME280_temperature;BME280_humidity;BME280_pressure;Samples;Min_cycle;Max_cycle;Signal;HPM_P1;HPM_P2
2022/01/31 00:00:02;;;;;;;6.50;2.30;;;4.40;96.10;4.20;100557.00;;;;4991787;27;105244;-71
2022/01/31 00:02:28;;;;;;;5.23;2.50;;;4.40;95.90;4.20;100563.00;;;;4992149;28;93677;-70
2022/01/31 00:04:53;;;;;;;7.23;2.80;;;4.40;95.90;4.10;100552.00;;;;4999633;27;100322;-71
2022/01/31 00:07:19;;;;;;;8.23;3.07;;;4.30;95.80;4.10;100555.00;;;;4994982;27;92710;-69
2022/01/31 00:09:45;;;;;;;9.93;2.73;;;4.30;95.60;4.10;100547.00;;;;4991641;27;94108;-69
2022/01/31 00:12:18;;;;;;;10.87;2.37;;;4.30;95.40;4.10;100553.00;;;;4991845;28;93676;-68
2022/01/31 00:14:47;;;;;;;6.23;2.30;;;4.30;95.40;4.10;100551.00;;;;4991865;27;92696;-69
2022/01/31 00:17:14;;;;;;;8.13;2.03;;;4.30;95.00;4.20;100554.00;;;;4974741;28;92800;-69
2022/01/31 00:19:42;;;;;;;3.93;1.80;;;4.30;95.10;4.10;100554.00;;;;4989045;28;94687;-70
2022/01/31 00:22:10;;;;;;;6.30;1.97;;;4.30;95.00;4.10;100556.00;;;;4985030;27;93829;-69
2022/01/31 00:24:36;;;;;;;4.43;1.80;;;4.30;94.90;4.10;100547.00;;;;4991081;27;92882;-70
2022/01/31 00:27:04;;;;;;;6.70;2.33;;;4.20;94.70;4.10;100528.00;;;;5012934;27;93074;-71
2022/01/31 00:29:30;;;;;;;8.57;2.00;;;4.20;94.80;4.10;100530.00;;;;5011946;27;93087;-69
2022/01/31 00:31:56;;;;;;;11.63;2.00;;;4.80;94.70;4.10;100524.00;;;;5012200;27;122493;-70
2022/01/31 00:34:22;;;;;;;14.73;2.80;;;4.30;94.40;4.10;100521.00;;;;5008051;27;92985;-69
2022/01/31 00:36:48;;;;;;;5.07;1.83;;;4.30;94.20;4.10;100513.00;;;;4994029;28;92200;-71
2022/01/31 00:39:14;;;;;;;13.67;1.80;;;4.30;94.10;4.10;100509.00;;;;4976624;28;93005;-70
2022/01/31 00:41:40;;;;;;;10.73;2.77;;;4.40;94.00;4.10;100501.00;;;;4995357;28;93829;-70
2022/01/31 00:44:18;;;;;;;9.63;2.13;;;4.30;93.90;4.10;100497.00;;;;4994637;28;93861;-69
2022/01/31 00:46:53;;;;;;;11.83;2.83;;;4.60;93.80;4.10;100491.00;;;;5014026;27;93059;-68
2022/01/31 00:49:35;;;;;;;9.67;2.23;;;4.30;93.30;4.10;100497.00;;;;5014688;27;93887;-69
2022/01/31 00:52:02;;;;;;;5.90;1.60;;;4.20;93.20;4.10;100498.00;;;;5015289;27;93088;-68
2022/01/31 00:54:29;;;;;;;9.17;1.93;;;4.30;93.10;4.10;100489.00;;;;5015092;27;92990;-68
2022/01/31 00:56:55;;;;;;;7.00;2.20;;;4.30;93.30;4.10;100477.00;;;;5015421;27;92747;-70
2022/01/31 00:59:21;;;;;;;5.47;1.63;;;4.20;93.30;4.10;100474.00;;;;5015010;27;93945;-70
2022/01/31 01:01:47;;;;;;;6.87;1.87;;;4.30;93.00;4.10;100460.00;;;;5015019;27;94541;-71
2022/01/31 01:04:14;;;;;;;7.83;2.30;;;4.30;93.40;4.10;100443.00;;;;5014598;27;92739;-71
2022/01/31 01:06:40;;;;;;;4.53;1.87;;;4.30;93.00;4.10;100448.00;;;;5015531;27;92836;-70
2022/01/31 01:09:07;;;;;;;4.83;2.20;;;4.30;92.90;4.10;100438.00;;;;5013474;27;104856;-70
2022/01/31 01:11:33;;;;;;;14.17;1.97;;;4.30;92.90;4.10;100432.00;;;;5015090;27;93731;-68
2022/01/31 01:13:59;;;;;;;7.07;1.97;;;4.30;92.80;4.10;100425.00;;;;5014749;27;92721;-70
2022/01/31 01:16:25;;;;;;;8.03;1.90;;;4.20;92.90;4.10;100421.00;;;;4979377;28;92907;-69
2022/01/31 01:18:51;;;;;;;11.73;2.43;;;4.20;92.70;4.00;100407.00;;;;5011862;27;93508;-68
2022/01/31 01:21:16;;;;;;;4.27;2.00;;;4.20;92.80;4.10;100404.00;;;;4998064;27;121901;-72
2022/01/31 01:23:42;;;;;;;7.40;1.77;;;4.20;92.50;4.00;100382.00;;;;4993760;28;110778;-70
2022/01/31 01:26:08;;;;;;;9.63;2.33;;;4.20;92.40;4.00;100392.00;;;;4994393;27;108683;-69
2022/01/31 01:28:34;;;;;;;6.17;2.17;;;4.20;92.40;4.00;100387.00;;;;4994699;28;93748;-68
2022/01/31 01:31:00;;;;;;;14.83;2.37;;;4.20;92.40;4.00;100380.00;;;;4995052;27;93859;-70
2022/01/31 01:33:27;;;;;;;2.57;1.40;;;4.20;92.40;4.00;100359.00;;;;4994902;27;94082;-70
2022/01/31 01:35:54;;;;;;;2.43;1.83;;;4.30;92.40;4.00;100366.00;;;;4994499;27;92699;-71
2022/01/31 01:38:27;;;;;;;11.20;2.07;;;4.20;92.40;4.00;100357.00;;;;4976002;28;93046;-70
2022/01/31 01:40:54;;;;;;;5.63;1.87;;;4.20;92.50;4.00;100362.00;;;;5006759;27;93497;-69
2022/01/31 01:43:20;;;;;;;9.27;2.47;;;4.20;92.50;4.00;100355.00;;;;5014360;27;93001;-69
2022/01/31 01:45:50;;;;;;;5.23;2.23;;;4.20;92.40;4.00;100351.00;;;;5008087;27;108449;-70
2022/01/31 01:48:16;;;;;;;4.97;2.07;;;4.20;92.40;4.00;100352.00;;;;4994041;27;93366;-71
2022/01/31 01:50:41;;;;;;;8.23;1.73;;;4.20;92.30;4.00;100346.00;;;;4975213;28;121410;-70
2022/01/31 01:53:07;;;;;;;8.47;2.17;;;4.10;92.30;4.00;100339.00;;;;4974582;28;110423;-70
2022/01/31 01:55:34;;;;;;;3.87;1.60;;;4.10;92.40;4.00;100323.00;;;;4995650;27;93213;-70
2022/01/31 01:58:00;;;;;;;7.53;1.73;;;4.10;92.30;3.90;100299.00;;;;4993369;28;94399;-70
2022/01/31 02:00:28;;;;;;;9.53;2.03;;;4.20;92.30;3.90;100306.00;;;;4994257;27;94732;-70
2022/01/31 02:02:55;;;;;;;9.07;2.27;;;4.10;92.40;3.90;100300.00;;;;4994557;28;92738;-70
2022/01/31 02:05:22;;;;;;;10.73;2.27;;;3.50;92.40;3.90;100296.00;;;;5008248;27;92837;-70
2022/01/31 02:07:48;;;;;;;5.07;2.33;;;4.10;92.50;3.90;100273.00;;;;5014356;27;93580;-70
2022/01/31 02:10:16;;;;;;;6.03;1.40;;;4.10;92.50;3.90;100276.00;;;;4988399;28;93255;-68
2022/01/31 02:12:47;;;;;;;12.10;2.20;;;4.10;92.70;3.80;100275.00;;;;4971862;28;92830;-67
2022/01/31 02:15:14;;;;;;;2.40;1.70;;;4.00;92.70;3.80;100280.00;;;;5003324;27;92090;-71
2022/01/31 02:17:40;;;;;;;6.60;2.23;;;4.00;92.90;3.80;100276.00;;;;5011666;27;94181;-68
2022/01/31 02:20:09;;;;;;;9.37;2.30;;;4.00;92.90;3.80;100269.00;;;;5014025;27;93609;-69
2022/01/31 02:22:36;;;;;;;8.83;2.57;;;4.00;92.90;3.80;100257.00;;;;5014112;27;93927;-69
2022/01/31 02:25:03;;;;;;;9.60;2.43;;;4.00;92.90;3.70;100244.00;;;;5013860;27;93044;-69
2022/01/31 02:27:35;;;;;;;16.17;2.67;;;3.90;93.10;3.70;100240.00;;;;5013811;27;94098;-70
2022/01/31 02:30:06;;;;;;;8.77;1.97;;;3.90;93.10;3.70;100234.00;;;;5009953;27;110257;-68
2022/01/31 02:32:33;;;;;;;5.13;1.83;;;3.90;93.20;3.70;100226.00;;;;5013588;27;92911;-68
2022/01/31 02:35:01;;;;;;;9.03;2.03;;;3.90;93.30;3.70;100219.00;;;;4994062;27;95228;-70
2022/01/31 02:37:27;;;;;;;6.03;1.83;;;3.90;93.40;3.70;100212.00;;;;5014309;27;93201;-69
2022/01/31 02:39:52;;;;;;;7.07;2.67;;;3.90;93.40;3.70;100212.00;;;;5012045;27;120442;-68
2022/01/31 02:42:18;;;;;;;5.03;1.93;;;3.90;93.60;3.70;100204.00;;;;5008281;27;92785;-69
2022/01/31 02:44:45;;;;;;;21.43;3.00;;;3.90;93.50;3.60;100187.00;;;;5012830;27;92943;-69
2022/01/31 02:47:24;;;;;;;7.53;1.67;;;3.90;93.60;3.60;100190.00;;;;5011486;27;95086;-69
2022/01/31 02:52:19;;;;;;;4.57;1.67;;;3.80;93.60;3.60;100193.00;;;;4990013;28;92806;-69
2022/01/31 02:54:46;;;;;;;15.20;2.77;;;3.80;93.80;3.60;100177.00;;;;4995495;27;93034;-69
2022/01/31 02:57:12;;;;;;;4.87;2.07;;;3.70;94.10;3.60;100172.00;;;;5007126;27;92722;-68
2022/01/31 02:59:38;;;;;;;6.87;2.57;;;3.80;93.90;3.60;100177.00;;;;4991686;27;121195;-70
2022/01/31 03:02:05;;;;;;;2.93;1.70;;;3.80;94.00;3.60;100168.00;;;;4992437;28;111132;-68
2022/01/31 03:04:31;;;;;;;11.73;2.20;;;3.80;94.10;3.60;100169.00;;;;4993102;27;92607;-71
2022/01/31 03:06:57;;;;;;;6.10;1.67;;;3.90;94.30;3.50;100162.00;;;;4974532;28;93152;-70
2022/01/31 03:09:23;;;;;;;8.03;2.50;;;3.70;94.40;3.50;100156.00;;;;4992250;28;123320;-68
2022/01/31 03:11:48;;;;;;;14.27;2.80;;;3.70;94.50;3.50;100153.00;;;;4988752;27;109763;-70
2022/01/31 03:14:16;;;;;;;12.53;2.03;;;3.70;94.60;3.50;100137.00;;;;5013530;27;93166;-70
2022/01/31 03:16:54;;;;;;;13.07;2.60;;;3.70;94.80;3.50;100130.00;;;;5057356;27;80859;-70
2022/01/31 03:19:20;;;;;;;3.40;1.87;;;3.60;94.90;3.40;100116.00;;;;5017931;27;80946;-68
2022/01/31 03:21:46;;;;;;;9.57;2.60;;;3.60;95.40;3.40;100107.00;;;;5015269;27;81823;-70
2022/01/31 03:24:13;;;;;;;9.60;2.83;;;3.60;95.60;3.40;100097.00;;;;5003688;27;81257;-68
2022/01/31 03:26:40;;;;;;;16.83;2.90;;;3.50;95.80;3.40;100088.00;;;;5015140;27;81438;-68
2022/01/31 03:29:06;;;;;;;10.03;2.03;;;3.60;96.30;3.40;100085.00;;;;5012887;27;91531;-69
2022/01/31 03:31:32;;;;;;;8.93;2.33;;;3.60;96.50;3.30;100073.00;;;;5014910;27;80678;-70
2022/01/31 03:33:58;;;;;;;10.67;1.83;;;3.50;96.70;3.30;100068.00;;;;5014003;27;107421;-71
2022/01/31 03:36:24;;;;;;;5.97;2.20;;;3.50;97.00;3.30;100065.00;;;;5014842;27;81562;-69
2022/01/31 03:38:50;;;;;;;8.83;2.60;;;3.40;97.10;3.30;100064.00;;;;5018721;27;93601;-69
2022/01/31 03:41:20;;;;;;;4.83;1.80;;;3.50;97.40;3.20;100069.00;;;;5019528;27;93059;-69
2022/01/31 03:43:47;;;;;;;4.80;2.60;;;3.40;97.50;3.20;100058.00;;;;5015049;27;80828;-71
2022/01/31 03:46:13;;;;;;;6.07;2.57;;;3.50;97.80;3.20;100060.00;;;;5029692;27;82013;-71
2022/01/31 03:48:40;;;;;;;6.63;1.67;;;3.40;97.90;3.20;100058.00;;;;5033943;27;103774;-69
2022/01/31 03:51:06;;;;;;;7.33;3.03;;;3.40;98.10;3.20;100052.00;;;;5033250;27;82546;-71
2022/01/31 03:53:32;;;;;;;10.67;1.70;;;3.30;98.40;3.10;100048.00;;;;5034569;27;96780;-70
2022/01/31 03:55:58;;;;;;;4.97;2.00;;;3.40;98.70;3.10;100042.00;;;;5031229;27;81578;-68
2022/01/31 03:58:24;;;;;;;8.50;2.17;;;3.30;98.90;3.10;100048.00;;;;5032863;27;109420;-69
2022/01/31 04:00:50;;;;;;;5.53;2.17;;;3.30;99.20;3.10;100048.00;;;;5021653;27;109989;-70
2022/01/31 04:03:16;;;;;;;14.80;3.13;;;3.30;99.40;3.10;100042.00;;;;5014139;27;91597;-68
2022/01/31 04:05:41;;;;;;;11.63;2.57;;;3.30;99.70;3.10;100022.00;;;;5014744;27;81268;-70
2022/01/31 04:08:08;;;;;;;9.87;2.93;;;3.30;99.90;3.10;100018.00;;;;5024911;27;81144;-70
2022/01/31 04:10:36;;;;;;;8.57;3.10;;;3.20;99.90;3.00;100005.00;;;;5032333;27;90003;-70
2022/01/31 04:13:03;;;;;;;7.20;2.13;;;3.20;99.90;3.00;99995.00;;;;5034846;27;82509;-68
2022/01/31 04:15:29;;;;;;;16.80;2.60;;;3.30;99.90;3.00;99985.00;;;;5034312;27;81735;-69
2022/01/31 04:17:54;;;;;;;5.97;2.40;;;3.20;99.90;3.00;99973.00;;;;5032549;27;81568;-68
2022/01/31 04:20:20;;;;;;;12.43;2.83;;;3.20;99.90;3.00;99970.00;;;;5034375;27;81733;-67
2022/01/31 04:23:04;;;;;;;12.90;2.60;;;3.20;99.90;2.90;99959.00;;;;5026505;27;81013;-70
2022/01/31 04:28:06;;;;;;;11.53;3.33;;;3.20;99.90;2.80;99926.00;;;;4999208;27;96744;-68
2022/01/31 04:30:37;;;;;;;7.10;2.57;;;3.00;99.90;2.80;99923.00;;;;4999671;27;81166;-68
2022/01/31 04:33:04;;;;;;;10.30;3.07;;;3.00;99.90;2.70;99916.00;;;;5015390;27;81035;-70
2022/01/31 04:35:29;;;;;;;15.07;2.97;;;3.00;99.90;2.70;99927.00;;;;5000765;27;110899;-71
2022/01/31 04:37:58;;;;;;;4.43;2.20;;;3.00;99.90;2.60;99914.00;;;;5001331;27;92266;-68
2022/01/31 04:40:24;;;;;;;8.17;3.20;;;2.90;99.90;2.60;99912.00;;;;5012623;27;81426;-68
2022/01/31 04:42:50;;;;;;;10.27;2.50;;;2.90;99.90;2.50;99908.00;;;;5001103;28;80905;-68
2022/01/31 04:45:16;;;;;;;7.53;2.50;;;2.80;99.90;2.50;99892.00;;;;4999344;27;111962;-68
2022/01/31 04:47:41;;;;;;;6.37;2.87;;;2.70;99.90;2.40;99887.00;;;;5000353;28;80899;-71
2022/01/31 04:50:08;;;;;;;5.43;2.10;;;2.70;99.90;2.40;99874.00;;;;5001084;27;110362;-69
2022/01/31 04:52:34;;;;;;;10.43;3.13;;;2.70;99.90;2.40;99885.00;;;;5020448;27;80716;-69
2022/01/31 04:54:59;;;;;;;7.73;2.43;;;2.60;99.90;2.30;99875.00;;;;5034335;27;86366;-68
2022/01/31 04:57:25;;;;;;;14.27;3.57;;;2.60;99.90;2.30;99864.00;;;;5020814;27;81217;-68
2022/01/31 04:59:51;;;;;;;6.90;2.13;;;2.60;99.90;2.30;99855.00;;;;5015547;27;111224;-68
2022/01/31 05:02:17;;;;;;;14.47;3.17;;;2.50;99.90;2.30;99845.00;;;;5000149;28;80908;-68
2022/01/31 05:04:43;;;;;;;8.30;2.87;;;2.50;99.90;2.30;99843.00;;;;5011223;27;105248;-69
2022/01/31 05:07:08;;;;;;;9.20;1.93;;;3.20;99.90;2.30;99836.00;;;;5019608;27;110715;-69
2022/01/31 05:09:34;;;;;;;14.87;2.63;;;2.50;99.90;2.20;99824.00;;;;5019180;27;109039;-69
2022/01/31 05:12:00;;;;;;;8.97;2.80;;;2.40;99.90;2.20;99820.00;;;;5020707;27;81073;-70
2022/01/31 05:14:26;;;;;;;15.53;3.73;;;2.40;99.90;2.20;99811.00;;;;5017066;27;96983;-69
2022/01/31 05:16:51;;;;;;;9.87;2.63;;;2.40;99.90;2.20;99812.00;;;;5018875;27;111863;-69
2022/01/31 05:19:17;;;;;;;16.70;3.10;;;2.50;99.90;2.20;99795.00;;;;5000740;27;90049;-70
2022/01/31 05:21:43;;;;;;;16.23;3.10;;;2.40;99.90;2.20;99785.00;;;;5000138;28;80826;-70
2022/01/31 05:24:10;;;;;;;6.27;2.27;;;2.40;99.90;2.20;99788.00;;;;4999094;28;110405;-69
2022/01/31 05:26:36;;;;;;;8.57;2.40;;;2.70;99.90;2.20;99795.00;;;;5000141;27;80931;-70
2022/01/31 05:29:02;;;;;;;11.80;2.27;;;3.90;99.90;2.20;99795.00;;;;4998554;27;110677;-70
2022/01/31 05:31:27;;;;;;;10.70;2.80;;;2.50;99.90;2.20;99784.00;;;;5000313;27;80826;-70
2022/01/31 05:33:53;;;;;;;9.50;3.00;;;2.40;99.90;2.20;99771.00;;;;5017412;27;100504;-70
2022/01/31 05:36:20;;;;;;;10.37;3.00;;;2.50;99.90;2.20;99765.00;;;;5018548;27;112015;-70
2022/01/31 05:38:46;;;;;;;7.63;2.53;;;2.40;99.90;2.10;99762.00;;;;5002727;27;81501;-71
2022/01/31 05:41:18;;;;;;;7.43;3.30;;;2.40;99.90;2.10;99773.00;;;;4999511;27;80840;-70
2022/01/31 05:43:44;;;;;;;6.47;2.87;;;2.40;99.90;2.10;99759.00;;;;4998009;27;83681;-69
2022/01/31 05:46:10;;;;;;;6.80;2.47;;;2.30;99.90;2.10;99754.00;;;;5013723;27;97888;-68
2022/01/31 05:48:36;;;;;;;5.00;2.70;;;2.30;99.90;2.10;99748.00;;;;5018907;27;110800;-70
2022/01/31 05:51:02;;;;;;;9.77;2.67;;;2.40;99.90;2.10;99751.00;;;;5018011;27;109726;-70
2022/01/31 05:53:30;;;;;;;7.53;2.87;;;2.40;99.90;2.10;99755.00;;;;5017224;27;82588;-70
2022/01/31 05:55:57;;;;;;;7.50;2.87;;;2.40;99.90;2.10;99737.00;;;;5033831;27;82624;-68
2022/01/31 05:58:23;;;;;;;6.60;3.37;;;2.30;99.90;2.10;99724.00;;;;5016899;27;81132;-70
2022/01/31 06:00:49;;;;;;;7.00;2.87;;;2.40;99.90;2.20;99726.00;;;;5004516;27;81041;-68
2022/01/31 06:03:15;;;;;;;7.53;2.57;;;2.40;99.90;2.20;99722.00;;;;4994758;27;109698;-68
2022/01/31 06:05:41;;;;;;;14.53;4.17;;;2.40;99.90;2.20;99711.00;;;;4995483;27;109799;-67
2022/01/31 06:08:06;;;;;;;5.90;2.33;;;2.40;99.90;2.30;99707.00;;;;5006336;27;99806;-69
2022/01/31 06:10:34;;;;;;;15.40;2.70;;;2.50;99.90;2.30;99704.00;;;;4996131;27;81146;-68
2022/01/31 06:13:00;;;;;;;12.47;3.23;;;2.50;99.90;2.30;99693.00;;;;4995414;27;82356;-68
2022/01/31 06:15:26;;;;;;;11.33;2.53;;;2.50;99.90;2.30;99680.00;;;;4995797;27;81256;-70
2022/01/31 06:17:52;;;;;;;5.33;2.07;;;2.50;99.90;2.30;99675.00;;;;4995882;27;81820;-70
2022/01/31 06:20:18;;;;;;;13.27;2.80;;;2.50;99.90;2.30;99662.00;;;;4999096;27;110156;-69
2022/01/31 06:22:50;;;;;;;11.33;2.50;;;2.50;99.90;2.30;99671.00;;;;4995659;27;81326;-69
2022/01/31 06:25:17;;;;;;;6.37;2.20;;;2.60;99.90;2.30;99660.00;;;;4995889;27;82588;-67
2022/01/31 06:27:44;;;;;;;17.60;3.20;;;2.50;99.90;2.30;99655.00;;;;4999507;27;81013;-68
2022/01/31 06:30:10;;;;;;;4.47;1.83;;;2.50;99.90;2.30;99661.00;;;;5001320;27;81244;-68
2022/01/31 06:32:37;;;;;;;14.73;3.83;;;3.00;99.90;2.30;99657.00;;;;4995739;27;94776;-69
2022/01/31 06:35:04;;;;;;;7.33;2.20;;;2.50;99.90;2.30;99656.00;;;;4995932;27;81478;-69
2022/01/31 06:37:29;;;;;;;8.57;3.70;;;2.50;99.90;2.30;99652.00;;;;4995074;27;93908;-68
2022/01/31 06:39:55;;;;;;;12.47;3.67;;;2.50;99.90;2.30;99646.00;;;;4995919;27;87362;-69
2022/01/31 06:42:21;;;;;;;17.77;4.07;;;2.60;99.90;2.30;99638.00;;;;4994916;27;81772;-71
2022/01/31 06:44:47;;;;;;;9.23;2.50;;;2.50;99.90;2.30;99630.00;;;;4996416;27;82092;-71
2022/01/31 06:47:13;;;;;;;11.53;3.03;;;2.50;99.90;2.20;99621.00;;;;4996375;27;84831;-70
2022/01/31 06:49:39;;;;;;;10.03;3.17;;;2.50;99.90;2.20;99625.00;;;;4995153;27;109133;-70
2022/01/31 06:52:05;;;;;;;13.57;2.90;;;2.50;99.90;2.20;99627.00;;;;4992640;27;87958;-70
2022/01/31 06:54:31;;;;;;;5.50;3.47;;;2.40;99.90;2.20;99610.00;;;;4995093;27;97427;-70
2022/01/31 06:56:58;;;;;;;7.87;2.97;;;2.50;99.90;2.20;99601.00;;;;5000495;27;81600;-71
2022/01/31 06:59:23;;;;;;;11.83;3.50;;;2.50;99.90;2.20;99594.00;;;;5018030;27;81221;-71
2022/01/31 07:01:49;;;;;;;5.17;3.00;;;2.40;99.90;2.20;99580.00;;;;5015538;27;111975;-71
2022/01/31 07:04:15;;;;;;;11.00;3.50;;;2.40;99.90;2.20;99573.00;;;;5018704;27;81205;-68
2022/01/31 07:06:41;;;;;;;23.30;3.77;;;2.40;99.90;2.20;99557.00;;;;5016815;27;111600;-68
2022/01/31 07:09:07;;;;;;;6.83;2.90;;;2.40;99.90;2.20;99560.00;;;;5032266;27;110715;-69
2022/01/31 07:11:38;;;;;;;7.80;3.20;;;2.50;99.90;2.20;99552.00;;;;5015937;27;80983;-68
2022/01/31 07:14:07;;;;;;;4.30;2.07;;;2.50;99.90;2.30;99537.00;;;;5017692;27;81784;-68
2022/01/31 07:16:34;;;;;;;6.27;3.07;;;2.40;99.90;2.30;99537.00;;;;5017830;27;81088;-69
2022/01/31 07:19:06;;;;;;;7.60;2.93;;;2.40;99.90;2.30;99529.00;;;;5016096;27;80769;-68
2022/01/31 07:21:38;;;;;;;10.00;3.80;;;2.50;99.90;2.30;99520.00;;;;4999251;27;83329;-69
2022/01/31 07:26:36;;;;;;;11.10;3.40;;;2.50;99.90;2.40;99504.00;;;;5007813;27;82961;-67
2022/01/31 07:29:02;;;;;;;5.53;2.80;;;2.60;99.90;2.40;99506.00;;;;5012180;27;107333;-67
2022/01/31 07:31:28;;;;;;;12.93;4.67;;;2.60;99.90;2.40;99494.00;;;;5016016;27;115320;-67
2022/01/31 07:33:54;;;;;;;8.33;3.83;;;2.70;99.90;2.40;99496.00;;;;5015480;27;112616;-68
2022/01/31 07:36:19;;;;;;;6.67;2.67;;;2.90;99.90;2.50;99484.00;;;;5011713;27;82885;-69
2022/01/31 07:38:45;;;;;;;11.87;2.57;;;2.70;99.90;2.50;99478.00;;;;5003784;27;82894;-68
2022/01/31 07:41:14;;;;;;;9.00;3.07;;;2.70;99.90;2.60;99486.00;;;;5003591;27;96972;-68
2022/01/31 07:43:43;;;;;;;12.93;3.13;;;2.70;99.90;2.60;99480.00;;;;5016195;27;83865;-68
2022/01/31 07:46:13;;;;;;;5.20;2.40;;;2.80;99.90;2.60;99471.00;;;;5016945;27;82691;-69
2022/01/31 07:48:39;;;;;;;14.93;3.80;;;2.80;99.90;2.60;99474.00;;;;5009716;27;82104;-69
2022/01/31 07:51:04;;;;;;;5.53;3.17;;;2.90;99.90;2.70;99484.00;;;;4994615;27;112761;-69
2022/01/31 07:53:30;;;;;;;6.73;3.00;;;2.80;99.90;2.70;99480.00;;;;4997666;27;96170;-69
2022/01/31 07:55:56;;;;;;;10.77;2.70;;;2.90;99.90;2.80;99483.00;;;;4997809;27;109845;-68
2022/01/31 07:58:21;;;;;;;6.87;2.73;;;2.90;99.90;2.80;99476.00;;;;4995765;28;100524;-70
2022/01/31 08:00:48;;;;;;;8.90;2.97;;;3.00;99.90;2.80;99472.00;;;;4996372;27;113220;-70
2022/01/31 08:03:14;;;;;;;10.90;3.13;;;3.00;99.90;2.90;99470.00;;;;5000523;27;83135;-69
2022/01/31 08:05:40;;;;;;;12.90;3.03;;;3.10;99.90;2.90;99461.00;;;;5000318;28;83177;-68
2022/01/31 08:08:06;;;;;;;5.17;2.63;;;3.10;99.90;2.90;99442.00;;;;5017617;27;83041;-69
2022/01/31 08:10:34;;;;;;;7.47;2.97;;;3.10;99.90;3.00;99448.00;;;;5019892;27;111269;-68
2022/01/31 08:13:01;;;;;;;8.17;2.63;;;3.10;99.90;3.00;99445.00;;;;5019493;27;82762;-68
2022/01/31 08:15:28;;;;;;;8.00;2.90;;;3.20;99.90;3.10;99436.00;;;;5009478;27;82875;-68
2022/01/31 08:17:54;;;;;;;6.87;2.87;;;3.20;99.90;3.00;99433.00;;;;5015726;27;82887;-68
2022/01/31 08:20:20;;;;;;;11.93;3.30;;;3.30;99.90;3.10;99424.00;;;;5017333;27;113803;-69
2022/01/31 08:22:46;;;;;;;5.83;2.30;;;3.30;99.90;3.10;99419.00;;;;5017774;27;83962;-69
2022/01/31 08:25:14;;;;;;;6.90;3.30;;;3.30;99.90;3.10;99414.00;;;;5003122;27;110029;-69
2022/01/31 08:27:49;;;;;;;9.93;3.33;;;3.40;99.90;3.20;99406.00;;;;5012561;27;82454;-67
2022/01/31 08:30:21;;;;;;;9.53;2.97;;;3.30;99.90;3.20;99395.00;;;;5018789;27;82804;-68
2022/01/31 08:32:58;;;;;;;9.20;3.60;;;3.30;99.90;3.20;99399.00;;;;5020498;27;83046;-69
2022/01/31 08:38:09;;;;;;;5.77;2.13;;;3.40;99.90;3.30;99387.00;;;;5016965;27;81727;-68
2022/01/31 08:40:35;;;;;;;8.87;2.97;;;3.40;99.90;3.30;99376.00;;;;5020055;27;89209;-68
2022/01/31 08:43:00;;;;;;;11.53;3.30;;;4.10;99.90;3.40;99379.00;;;;5017084;27;97191;-69
2022/01/31 08:45:26;;;;;;;12.23;3.10;;;3.50;99.90;3.40;99378.00;;;;5009525;27;109911;-69
2022/01/31 08:47:52;;;;;;;8.53;2.37;;;3.60;99.90;3.50;99370.00;;;;4999016;27;107047;-70
2022/01/31 08:50:17;;;;;;;8.37;3.17;;;3.60;99.90;3.60;99359.00;;;;4999718;27;82972;-69
2022/01/31 08:52:43;;;;;;;13.83;3.37;;;3.60;99.90;3.60;99349.00;;;;5002926;27;112487;-68
2022/01/31 08:55:11;;;;;;;10.53;3.10;;;3.80;99.90;3.60;99351.00;;;;4998949;28;97523;-68
2022/01/31 08:57:37;;;;;;;12.33;2.73;;;3.80;99.90;3.70;99348.00;;;;5001880;27;82483;-70
2022/01/31 09:00:06;;;;;;;18.23;3.87;;;3.70;99.90;3.70;99347.00;;;;4999429;27;91768;-69
2022/01/31 09:02:41;;;;;;;8.97;2.80;;;4.60;99.90;3.70;99334.00;;;;4999962;27;82927;-70
2022/01/31 09:05:08;;;;;;;7.97;3.10;;;3.90;99.90;3.70;99323.00;;;;4999556;28;82731;-69
2022/01/31 09:07:34;;;;;;;6.63;2.83;;;3.90;99.90;3.80;99331.00;;;;5000759;27;82654;-71
2022/01/31 09:10:01;;;;;;;10.17;3.17;;;3.90;99.90;3.80;99326.00;;;;4997097;27;89448;-70
2022/01/31 09:12:30;;;;;;;9.33;3.00;;;3.90;99.90;3.80;99326.00;;;;4997663;27;85496;-69
2022/01/31 09:14:56;;;;;;;13.07;3.37;;;3.90;99.90;3.80;99332.00;;;;5000324;27;82999;-68
2022/01/31 09:17:22;;;;;;;6.47;2.97;;;4.00;99.90;3.80;99328.00;;;;4999747;27;82885;-67
2022/01/31 09:19:48;;;;;;;6.37;2.63;;;4.00;99.90;3.90;99319.00;;;;4998163;28;112716;-69
2022/01/31 09:22:13;;;;;;;13.07;3.73;;;4.00;99.90;3.90;99323.00;;;;4997219;27;93412;-69
2022/01/31 09:24:40;;;;;;;3.90;2.67;;;4.00;99.90;3.90;99314.00;;;;4998637;27;110340;-70
2022/01/31 09:27:08;;;;;;;5.40;2.20;;;4.10;99.90;3.90;99320.00;;;;4999547;27;81975;-68
2022/01/31 09:29:34;;;;;;;10.17;2.97;;;4.00;99.90;3.90;99311.00;;;;4997318;27;84626;-68
2022/01/31 09:32:04;;;;;;;8.40;3.07;;;4.10;99.90;3.90;99295.00;;;;4998723;27;82797;-68
2022/01/31 09:34:30;;;;;;;6.10;2.20;;;4.10;99.90;3.90;99289.00;;;;4998818;28;83841;-68
2022/01/31 09:36:58;;;;;;;5.50;2.17;;;4.10;99.90;3.90;99294.00;;;;5007963;27;82640;-70
2022/01/31 09:39:23;;;;;;;5.50;2.23;;;4.10;99.90;4.00;99298.00;;;;5011900;27;82694;-69
2022/01/31 09:41:54;;;;;;;7.80;2.73;;;4.00;99.90;4.00;99295.00;;;;5002265;27;113055;-69
2022/01/31 09:44:27;;;;;;;5.87;2.43;;;4.10;99.90;4.00;99287.00;;;;4999226;28;82838;-68
2022/01/31 09:47:06;;;;;;;9.83;2.83;;;4.20;99.90;4.10;99284.00;;;;4997898;27;82858;-67
2022/01/31 09:49:33;;;;;;;9.20;2.57;;;4.20;99.90;4.10;99283.00;;;;4999148;27;83034;-69
2022/01/31 09:51:58;;;;;;;5.10;2.77;;;4.20;99.90;4.20;99281.00;;;;4998839;27;83475;-69
2022/01/31 09:54:27;;;;;;;4.87;2.00;;;4.30;99.90;4.20;99279.00;;;;4999252;28;82878;-68
2022/01/31 09:56:53;;;;;;;10.83;2.90;;;4.40;99.90;4.30;99278.00;;;;4998461;28;82927;-69
2022/01/31 09:59:19;;;;;;;17.97;3.17;;;4.40;99.90;4.30;99275.00;;;;4998640;28;84062;-68
2022/01/31 10:01:52;;;;;;;10.23;2.23;;;4.40;99.90;4.40;99279.00;;;;4999117;27;84267;-69
2022/01/31 10:04:30;;;;;;;7.83;2.60;;;4.50;99.90;4.40;99279.00;;;;4998918;27;82742;-68
2022/01/31 10:06:57;;;;;;;9.07;2.37;;;4.50;99.40;4.40;99281.00;;;;4998213;28;82689;-70
2022/01/31 10:09:29;;;;;;;5.73;1.90;;;4.60;99.40;4.40;99277.00;;;;4997714;27;83212;-68
2022/01/31 10:12:20;;;;;;;9.27;2.10;;;4.50;99.90;4.30;99279.00;;;;5017484;27;83137;-70
2022/01/31 10:17:39;;;;;;;6.20;1.93;;;4.50;99.90;4.00;99279.00;;;;5018140;27;81912;-70
2022/01/31 10:20:30;;;;;;;5.33;2.30;;;4.30;99.90;3.90;99276.00;;;;5017594;27;83393;-70
2022/01/31 10:23:10;;;;;;;4.13;2.23;;;4.10;99.90;3.70;99270.00;;;;5004838;27;84182;-71
2022/01/31 10:25:37;;;;;;;4.37;2.10;;;3.90;99.90;3.50;99260.00;;;;4995897;27;83428;-71
2022/01/31 10:28:12;;;;;;;5.13;2.53;;;3.80;99.90;3.40;99267.00;;;;4997598;28;82823;-68
2022/01/31 10:30:39;;;;;;;4.60;2.17;;;3.70;99.90;3.30;99265.00;;;;4998625;27;82894;-70
2022/01/31 10:33:09;;;;;;;3.17;1.83;;;3.50;99.90;3.30;99270.00;;;;4997203;28;88600;-68
2022/01/31 10:35:38;;;;;;;6.53;2.60;;;3.50;99.90;3.30;99266.00;;;;4996303;28;82923;-68
2022/01/31 10:38:10;;;;;;;7.70;2.30;;;3.50;99.90;3.20;99258.00;;;;5001659;27;82946;-70
2022/01/31 10:57:04;;;;;;;8.30;2.97;;;3.30;99.90;3.10;99232.00;;;;5006520;27;82745;-70
2022/01/31 10:59:41;;;;;;;3.10;2.10;;;3.30;99.90;3.00;99235.00;;;;5016007;27;82734;-69
2022/01/31 11:02:20;;;;;;;8.13;2.40;;;3.20;99.90;3.00;99222.00;;;;5015119;27;82946;-70
2022/01/31 11:04:46;;;;;;;3.90;2.13;;;3.30;99.90;3.00;99219.00;;;;5015661;27;83061;-69
2022/01/31 11:07:16;;;;;;;6.87;2.83;;;3.30;99.90;3.00;99215.00;;;;5005665;27;82636;-69
2022/01/31 11:09:45;;;;;;;4.50;2.73;;;3.20;99.90;3.00;99222.00;;;;4997847;27;90139;-70
2022/01/31 11:12:12;;;;;;;6.63;2.77;;;3.30;99.90;3.00;99223.00;;;;4999137;27;83991;-70
2022/01/31 11:14:43;;;;;;;5.47;2.80;;;3.20;99.90;3.00;99227.00;;;;4995156;28;84133;-73
2022/01/31 11:17:18;;;;;;;2.93;2.17;;;3.20;99.90;3.00;99233.00;;;;4995194;27;83640;-72
2022/01/31 11:19:49;;;;;;;4.33;2.90;;;3.30;99.90;3.10;99223.00;;;;4995624;27;82946;-70
2022/01/31 11:22:17;;;;;;;5.87;2.37;;;3.30;99.90;3.10;99227.00;;;;4998867;27;82814;-71
2022/01/31 11:24:49;;;;;;;3.07;2.80;;;3.30;99.90;3.20;99223.00;;;;4997507;28;84264;-72
2022/01/31 11:27:19;;;;;;;6.63;2.50;;;3.30;99.90;3.20;99219.00;;;;5007707;27;82892;-70
2022/01/31 11:29:55;;;;;;;5.17;2.73;;;3.40;99.90;3.20;99213.00;;;;5015607;27;82817;-69
2022/01/31 11:32:23;;;;;;;4.00;2.87;;;3.90;99.90;3.20;99214.00;;;;5014436;27;82760;-71